• Join FlightAware (Why Join?)
  • Login
  • US Flag 
07:58PM EDT


 

Airport Tracker/Info


-or-


 

Live Flight TrackerFlight Track Log ✈ N400PU ✈ 19-May-2013 ✈ KLAF - KLNK

Flight Track Log - Related Links

Times and Time Zones

All times are in EDT time to prevent confusion due to time zone crossing. See the N400PU flight status page for this flight to view local times or setup timezone preferences in your user account.

Time Position Orientation Groundspeed Altitude Reporting Facility
EDT Latitude Longitude Course Direction KTS MPH feet Rate Location/Type
12:36PM 40.4342 -86.8719 334° Northwest 198 228 4,400  Level Chicago Center
12:37PM 40.4478 -86.8808 334° Northwest 190 219 4,900 1,920 Climbing Chicago Center
12:38PM 40.4558 -86.9611 278° West 223 257 7,100 2,160 Climbing Chicago Center
12:39PM 40.4611 -87.0403 275° West 219 252 9,400 2,220 Climbing Chicago Center
12:40PM 40.4647 -87.1492 273° West 243 280 11,700 2,100 Climbing Chicago Center
12:41PM 40.4697 -87.2536 274° West 277 319 13,800 2,040 Climbing Chicago Center
12:42PM 40.4753 -87.3606 274° West 290 334 16,000 2,100 Climbing Chicago Center
12:43PM 40.4806 -87.4744 274° West 308 354 18,200 2,040 Climbing Chicago Center
12:44PM 40.4861 -87.5878 274° West 311 358 20,300 1,920 Climbing Chicago Center
12:45PM 40.4917 -87.7039 274° West 318 366 22,200 1,920 Climbing Chicago Center
12:46PM 40.4992 -87.8486 274° West 327 376 24,300 1,920 Climbing Chicago Center
12:47PM 40.5028 -87.9719 272° West 336 387 26,200 1,680 Climbing Chicago Center
12:48PM 40.5089 -88.0931 274° West 334 384 27,800 1,500 Climbing Chicago Center
12:49PM 40.5136 -88.2194 273° West 344 396 29,300 1,440 Climbing Chicago Center
12:50PM 40.5186 -88.3464 273° West 348 400 30,800 1,380 Climbing Chicago Center
12:51PM 40.5236 -88.4733 273° West 349 402 32,200 1,260 Climbing Chicago Center
12:52PM 40.5658 -88.6169 291° West 356 410 33,500 1,140 Climbing Chicago Center
12:53PM 40.5992 -88.7406 290° West 358 412 34,600 960 Climbing Chicago Center
12:54PM 40.6325 -88.8603 290° West 359 413 35,600 960 Climbing Chicago Center
12:55PM 40.6228 -88.9983 265° West 370 426 36,600 960 Climbing Chicago Center
12:56PM 40.6058 -89.1356 261° West 378 435 37,700 1,140 Climbing Chicago Center
12:57PM 40.5883 -89.2697 260° West 375 432 39,000 960 Climbing Chicago Center
12:58PM 40.5697 -89.4267 261° West 364 419 39,800 480 Climbing Chicago Center
12:59PM 40.5536 -89.5617 261° West 372 428 40,000 60 Climbing Chicago Center
01:01PM 40.5350 -89.7031 260° West 394 453 40,000  Level Chicago Center
01:02PM 40.5181 -89.8519 262° West 412 474 40,000  Level Chicago Center
01:03PM 40.5053 -89.9981 263° West 407 468 40,000  Level Chicago Center
01:04PM 40.5075 -90.1758 271° West 411 473 40,000  Level Chicago Center
01:05PM 40.5144 -90.3119 274° West 417 480 40,000  Level Chicago Center
01:06PM 40.5256 -90.4669 275° West 423 487 40,000  Level Chicago Center
01:07PM 40.5356 -90.6211 275° West 426 490 40,000  Level Chicago Center
01:08PM 40.5478 -90.7756 276° West 425 489 40,000  Level Chicago Center
01:09PM 40.5636 -90.9608 276° West 423 487 40,000  Level Chicago Center
01:10PM 40.5775 -91.1139 277° West 423 487 40,000  Level Chicago Center
01:11PM 40.5928 -91.2686 277° West 425 489 40,000  Level Chicago Center
01:11PM 40.6008 -91.3517 277° West 426 490 40,000  Level Chicago Center
01:12PM 40.6136 -91.5083 276° West 434 499 40,000  Level Chicago Center
01:13PM 40.6261 -91.6981 275° West 438 504 40,000  Level Chicago Center
01:15PM 40.6375 -91.8553 276° West 438 504 40,000  Level Chicago Center
01:16PM 40.6469 -92.0136 275° West 440 506 40,000  Level Chicago Center
01:17PM 40.6575 -92.1728 275° West 442 509 40,000  Level Chicago Center
01:18PM 40.6686 -92.3636 274° West 443 510 40,000  Level Chicago Center
01:19PM 40.6786 -92.5208 275° West 441 507 40,000  Level Chicago Center
01:20PM 40.6878 -92.6794 274° West 442 509 40,000  Level Chicago Center
01:21PM 40.6967 -92.8386 274° West 443 510 40,000  Level Chicago Center
01:21PM 40.7042 -92.9669 274° West 443 510 40,000  Level Minneapolis Center
01:22PM 40.7131 -93.1236 274° West 439 505 40,000  Level Minneapolis Center
01:24PM 40.7211 -93.2839 274° West 438 504 40,000  Level Minneapolis Center
01:25PM 40.7306 -93.4664 274° West 430 495 40,000  Level Minneapolis Center
01:26PM 40.7378 -93.6142 274° West 417 480 40,000 -180 Level Minneapolis Center
01:27PM 40.7444 -93.7578 274° West 403 464 39,700 -960 Descending Minneapolis Center
01:28PM 40.7519 -93.9044 274° West 405 466 38,100 -1,620 Descending Minneapolis Center
01:29PM 40.7586 -94.0561 273° West 414 476 36,400 -2,040 Descending Minneapolis Center
01:30PM 40.7664 -94.2472 273° West 434 499 34,000 -2,100 Descending Minneapolis Center
01:31PM 40.7733 -94.4111 273° West 448 516 32,100 -2,040 Descending Minneapolis Center
01:32PM 40.7800 -94.5875 273° West 446 513 29,900 -2,040 Descending Minneapolis Center
01:33PM 40.7867 -94.7458 273° West 437 503 27,900 -1,980 Descending Minneapolis Center
01:34PM 40.7928 -94.8992 273° West 424 488 25,900 -1,980 Descending Minneapolis Center
01:35PM 40.7969 -95.0481 272° West 411 473 23,900 -1,980 Descending Minneapolis Center
01:36PM 40.8031 -95.1942 273° West 402 463 21,900 -2,100 Descending Minneapolis Center
01:36PM 40.8150 -95.2750 281° West 386 444 20,700 -1,980 Descending Minneapolis Center
01:37PM 40.8094 -95.3325 263° West 385 443 19,900 -1,980 Descending Minneapolis Center
01:37PM 40.8183 -95.4094 279° West 367 422 18,700 -1,680 Descending Minneapolis Center
01:38PM 40.8136 -95.4683 264° West 373 429 18,200 -2,220 Descending Minneapolis Center
01:38PM 40.8214 -95.5442 278° West 369 425 16,500 -2,340 Descending Minneapolis Center
01:39PM 40.8175 -95.6044 265° West 370 426 15,800 -1,980 Descending Minneapolis Center
01:39PM 40.8244 -95.6789 277° West 364 419 14,500 -2,340 Descending Minneapolis Center
01:40PM 40.8228 -95.7622 269° West 361 415 13,400 -2,100 Descending Minneapolis Center
01:40PM 40.8250 -95.8111 273° West 359 413 12,400 -1,980 Descending Minneapolis Center
01:41PM 40.8267 -95.8933 272° West 358 412 11,400 -1,560 Descending Minneapolis Center
01:41PM 40.8272 -95.9375 271° West 355 409 11,000 -420 Descending Minneapolis Center
01:42PM 40.8317 -96.0194 274° West 348 400 11,000  Level Minneapolis Center
01:42PM 40.8306 -96.0528 267° West 313 360 11,000 -720 Level Minneapolis Center
01:43PM 40.8406 -96.1289 280° West 312 359 10,300 -1,260 Descending Minneapolis Center
01:44PM 40.8444 -96.1697 277° West 269 310 9,600 -1,800 Descending Minneapolis Center
01:44PM 40.8553 -96.2219 285° West 272 313 8,500 -2,220 Descending Minneapolis Center
01:45PM 40.8564 -96.2594 272° West 247 284 7,400 -2,160 Descending Minneapolis Center
01:45PM 40.8681 -96.3111 287° West 254 292 6,300 -1,920 Descending Minneapolis Center
01:46PM 40.8892 -96.3947 288° West 248 285 4,200 -1,740 Descending Minneapolis Center
01:46PM 40.8936 -96.4178 284° West 231 266 4,100 -240 Descending Minneapolis Center
01:47PM 40.9172 -96.4658 303° West 234 269 4,000 -60 Descending Minneapolis Center
01:48PM 40.9469 -96.5503 295° West 219 252 4,000 -120 Level Minneapolis Center
01:49PM 40.9714 -96.6197 295° West 213 245 3,800 -540 Descending Minneapolis Center
01:50PM 40.9697 -96.6386 263° West 209 241 3,300 -840 Descending Minneapolis Center
01:50PM 40.9967 -96.6864 307° West 209 241 3,000 -300 Descending Minneapolis Center
01:51PM 40.9922 -96.6997 246° West 176 203 3,000  Level Minneapolis Center
01:51PM 41.0031 -96.7378 291° West 195 224 3,000  Level Minneapolis Center
01:52PM 40.9781 -96.7428 189° South 140 161 3,000  Level Minneapolis Center
01:52PM 40.9628 -96.7581 217° Southwest 171 197 3,000 -300 Level Minneapolis Center
01:53PM 40.9239 -96.7625 185° South 153 176 2,500 -720 Descending Minneapolis Center
01:54PM 40.8972 -96.7564 170° South 129 148 2,100 -720 Descending Minneapolis Center
01:54PM 40.8911 -96.7619 214° Southwest 136 157 1,800 -600 Descending Minneapolis Center
01:55PM 40.8658 -96.7569 171° South 113 130 1,500 -120 Descending Minneapolis Center
01:55PM 40.8592 -96.7617 208° Southwest 133 153 1,700 240 Climbing Minneapolis Center